sensor_id;sensor_type;location;lat;lon;timestamp;pressure;altitude;pressure_sealevel;temperature;humidity
76124;BME280;65173;48.066;20.976;2023-03-26T00:00:10;99669.50;;;7.00;77.50
76124;BME280;65173;48.066;20.976;2023-03-26T00:03:16;99675.72;;;6.95;78.36
76124;BME280;65173;48.066;20.976;2023-03-26T00:06:21;99665.63;;;6.97;78.29
76124;BME280;65173;48.066;20.976;2023-03-26T00:09:24;99674.59;;;6.88;78.09
76124;BME280;65173;48.066;20.976;2023-03-26T00:12:27;99672.59;;;6.93;77.71
76124;BME280;65173;48.066;20.976;2023-03-26T00:15:30;99666.72;;;7.05;77.57
76124;BME280;65173;48.066;20.976;2023-03-26T00:18:33;99662.34;;;7.01;77.31
76124;BME280;65173;48.066;20.976;2023-03-26T00:21:36;99664.34;;;6.95;77.84
76124;BME280;65173;48.066;20.976;2023-03-26T00:24:39;99670.13;;;6.97;78.30
76124;BME280;65173;48.066;20.976;2023-03-26T00:27:41;99671.44;;;7.08;76.55
76124;BME280;65173;48.066;20.976;2023-03-26T00:30:57;99661.44;;;7.05;77.93
76124;BME280;65173;48.066;20.976;2023-03-26T00:34:00;99660.53;;;7.10;77.80
76124;BME280;65173;48.066;20.976;2023-03-26T00:37:05;99666.31;;;7.12;77.75
76124;BME280;65173;48.066;20.976;2023-03-26T00:40:09;99671.47;;;7.17;75.97
76124;BME280;65173;48.066;20.976;2023-03-26T00:43:13;99678.81;;;7.20;74.83
76124;BME280;65173;48.066;20.976;2023-03-26T00:46:23;99662.66;;;7.30;75.62
76124;BME280;65173;48.066;20.976;2023-03-26T00:49:26;99661.56;;;7.31;74.29
76124;BME280;65173;48.066;20.976;2023-03-26T00:52:32;99656.59;;;7.38;74.03
76124;BME280;65173;48.066;20.976;2023-03-26T00:55:35;99662.38;;;7.40;73.58
76124;BME280;65173;48.066;20.976;2023-03-26T00:58:38;99664.28;;;7.48;73.58
76124;BME280;65173;48.066;20.976;2023-03-26T01:01:41;99662.72;;;7.56;72.77
76124;BME280;65173;48.066;20.976;2023-03-26T01:04:52;99659.66;;;7.62;72.19
76124;BME280;65173;48.066;20.976;2023-03-26T01:07:57;99653.44;;;7.76;71.69
76124;BME280;65173;48.066;20.976;2023-03-26T01:11:03;99657.16;;;7.75;72.05
76124;BME280;65173;48.066;20.976;2023-03-26T01:14:13;99649.34;;;7.61;70.69
76124;BME280;65173;48.066;20.976;2023-03-26T01:17:17;99651.56;;;7.28;72.15
76124;BME280;65173;48.066;20.976;2023-03-26T01:20:23;99657.66;;;7.28;72.81
76124;BME280;65173;48.066;20.976;2023-03-26T01:23:40;99652.47;;;7.23;72.34
76124;BME280;65173;48.066;20.976;2023-03-26T01:30:27;99641.56;;;7.16;72.93
76124;BME280;65173;48.066;20.976;2023-03-26T01:33:46;99639.84;;;7.20;73.96
76124;BME280;65173;48.066;20.976;2023-03-26T01:47:32;99632.88;;;7.33;74.13
76124;BME280;65173;48.066;20.976;2023-03-26T01:50:36;99642.91;;;7.45;76.14
76124;BME280;65173;48.066;20.976;2023-03-26T01:53:43;99635.00;;;7.62;72.99
76124;BME280;65173;48.066;20.976;2023-03-26T02:00:19;99633.78;;;7.94;70.98
76124;BME280;65173;48.066;20.976;2023-03-26T02:03:30;99638.78;;;7.95;70.62
76124;BME280;65173;48.066;20.976;2023-03-26T02:09:42;99635.34;;;7.95;71.35
76124;BME280;65173;48.066;20.976;2023-03-26T02:12:47;99631.91;;;7.94;71.16
76124;BME280;65173;48.066;20.976;2023-03-26T02:15:59;99632.06;;;7.81;71.94
76124;BME280;65173;48.066;20.976;2023-03-26T02:19:03;99635.94;;;7.66;72.13
76124;BME280;65173;48.066;20.976;2023-03-26T02:22:09;99638.91;;;7.64;73.05
76124;BME280;65173;48.066;20.976;2023-03-26T02:25:19;99642.00;;;7.58;73.30
76124;BME280;65173;48.066;20.976;2023-03-26T02:28:24;99653.50;;;7.45;73.77
76124;BME280;65173;48.066;20.976;2023-03-26T02:31:29;99649.88;;;7.32;73.96
76124;BME280;65173;48.066;20.976;2023-03-26T02:34:32;99647.78;;;7.20;74.42
76124;BME280;65173;48.066;20.976;2023-03-26T02:37:35;99651.63;;;7.06;75.24
76124;BME280;65173;48.066;20.976;2023-03-26T02:40:47;99646.38;;;7.14;75.03
76124;BME280;65173;48.066;20.976;2023-03-26T02:43:50;99648.38;;;7.09;74.48
76124;BME280;65173;48.066;20.976;2023-03-26T02:46:56;99657.56;;;7.11;74.71
76124;BME280;65173;48.066;20.976;2023-03-26T02:50:19;99659.88;;;7.04;74.81
76124;BME280;65173;48.066;20.976;2023-03-26T02:53:41;99661.72;;;7.04;74.56
76124;BME280;65173;48.066;20.976;2023-03-26T02:57:07;99675.88;;;6.99;74.85
76124;BME280;65173;48.066;20.976;2023-03-26T03:00:29;99683.81;;;6.90;75.86
76124;BME280;65173;48.066;20.976;2023-03-26T03:04:01;99685.75;;;6.76;75.77
76124;BME280;65173;48.066;20.976;2023-03-26T03:07:15;99691.16;;;6.71;76.23
76124;BME280;65173;48.066;20.976;2023-03-26T03:10:18;99694.69;;;6.67;75.52
76124;BME280;65173;48.066;20.976;2023-03-26T03:13:40;99689.69;;;6.65;75.56
76124;BME280;65173;48.066;20.976;2023-03-26T03:16:43;99685.19;;;6.66;76.22
76124;BME280;65173;48.066;20.976;2023-03-26T03:19:47;99691.56;;;6.65;76.46
76124;BME280;65173;48.066;20.976;2023-03-26T03:22:51;99687.88;;;6.52;76.23
76124;BME280;65173;48.066;20.976;2023-03-26T03:25:55;99693.66;;;6.54;77.93
76124;BME280;65173;48.066;20.976;2023-03-26T03:28:59;99699.34;;;6.61;77.05
76124;BME280;65173;48.066;20.976;2023-03-26T03:32:02;99705.75;;;6.46;76.89
76124;BME280;65173;48.066;20.976;2023-03-26T03:35:13;99690.75;;;6.19;78.81
76124;BME280;65173;48.066;20.976;2023-03-26T03:38:19;99694.75;;;6.17;79.22
76124;BME280;65173;48.066;20.976;2023-03-26T03:41:24;99691.44;;;6.11;77.58
76124;BME280;65173;48.066;20.976;2023-03-26T03:44:27;99685.06;;;6.12;77.94
76124;BME280;65173;48.066;20.976;2023-03-26T03:47:30;99678.34;;;5.92;79.17
76124;BME280;65173;48.066;20.976;2023-03-26T03:50:33;99676.75;;;5.91;78.55
76124;BME280;65173;48.066;20.976;2023-03-26T03:53:57;99669.22;;;5.99;77.92
76124;BME280;65173;48.066;20.976;2023-03-26T03:57:21;99663.72;;;6.45;76.30
76124;BME280;65173;48.066;20.976;2023-03-26T04:00:32;99667.59;;;6.92;73.93
76124;BME280;65173;48.066;20.976;2023-03-26T04:03:55;99664.06;;;6.96;73.49
76124;BME280;65173;48.066;20.976;2023-03-26T04:07:03;99667.78;;;6.95;73.46
76124;BME280;65173;48.066;20.976;2023-03-26T04:10:28;99666.47;;;6.84;73.81
76124;BME280;65173;48.066;20.976;2023-03-26T04:13:46;99676.56;;;6.82;74.11
76124;BME280;65173;48.066;20.976;2023-03-26T04:17:03;99686.94;;;6.70;74.16
76124;BME280;65173;48.066;20.976;2023-03-26T04:20:10;99693.59;;;6.68;74.87
76124;BME280;65173;48.066;20.976;2023-03-26T04:23:20;99688.91;;;6.65;74.52
76124;BME280;65173;48.066;20.976;2023-03-26T04:26:30;99698.84;;;6.81;74.11
76124;BME280;65173;48.066;20.976;2023-03-26T04:29:41;99697.03;;;6.90;74.39
76124;BME280;65173;48.066;20.976;2023-03-26T04:32:54;99688.00;;;6.91;74.61
76124;BME280;65173;48.066;20.976;2023-03-26T04:36:01;99692.16;;;6.84;73.78
76124;BME280;65173;48.066;20.976;2023-03-26T04:39:10;99698.84;;;6.81;73.92
76124;BME280;65173;48.066;20.976;2023-03-26T04:42:40;99694.94;;;6.79;73.48
76124;BME280;65173;48.066;20.976;2023-03-26T04:46:00;99700.06;;;6.75;73.13
76124;BME280;65173;48.066;20.976;2023-03-26T04:49:09;99705.66;;;6.74;74.26
76124;BME280;65173;48.066;20.976;2023-03-26T04:52:13;99698.59;;;6.69;73.96
76124;BME280;65173;48.066;20.976;2023-03-26T04:55:42;99704.97;;;6.68;73.92
76124;BME280;65173;48.066;20.976;2023-03-26T04:58:58;99711.06;;;6.69;77.99
76124;BME280;65173;48.066;20.976;2023-03-26T05:02:03;99706.97;;;6.85;74.56
76124;BME280;65173;48.066;20.976;2023-03-26T05:05:13;99708.13;;;6.92;74.38
76124;BME280;65173;48.066;20.976;2023-03-26T05:08:16;99713.84;;;6.86;74.92
76124;BME280;65173;48.066;20.976;2023-03-26T05:11:19;99721.19;;;7.11;73.66
76124;BME280;65173;48.066;20.976;2023-03-26T05:14:22;99716.84;;;7.15;73.86
76124;BME280;65173;48.066;20.976;2023-03-26T05:17:25;99712.06;;;7.65;72.81
76124;BME280;65173;48.066;20.976;2023-03-26T05:20:34;99703.41;;;7.91;71.67
76124;BME280;65173;48.066;20.976;2023-03-26T05:23:40;99723.13;;;8.24;72.29
76124;BME280;65173;48.066;20.976;2023-03-26T05:26:55;99726.41;;;9.16;69.83
76124;BME280;65173;48.066;20.976;2023-03-26T05:30:00;99740.50;;;9.63;66.32
76124;BME280;65173;48.066;20.976;2023-03-26T05:33:04;99744.78;;;9.47;66.63
76124;BME280;65173;48.066;20.976;2023-03-26T05:36:16;99742.69;;;9.99;68.25
76124;BME280;65173;48.066;20.976;2023-03-26T05:39:33;99747.03;;;10.04;65.49
76124;BME280;65173;48.066;20.976;2023-03-26T05:43:00;99756.84;;;9.36;67.10
76124;BME280;65173;48.066;20.976;2023-03-26T05:46:11;99758.19;;;9.59;66.50
76124;BME280;65173;48.066;20.976;2023-03-26T05:49:14;99760.88;;;9.89;66.18
76124;BME280;65173;48.066;20.976;2023-03-26T05:52:17;99760.78;;;9.77;66.65
76124;BME280;65173;48.066;20.976;2023-03-26T05:55:39;99758.84;;;9.94;66.34
76124;BME280;65173;48.066;20.976;2023-03-26T05:59:00;99755.28;;;10.40;65.83
76124;BME280;65173;48.066;20.976;2023-03-26T06:02:22;99748.34;;;11.23;64.21
76124;BME280;65173;48.066;20.976;2023-03-26T06:06:08;99750.41;;;11.74;62.32
76124;BME280;65173;48.066;20.976;2023-03-26T06:09:20;99769.00;;;11.83;61.33
76124;BME280;65173;48.066;20.976;2023-03-26T06:12:24;99761.91;;;11.87;60.12
76124;BME280;65173;48.066;20.976;2023-03-26T06:15:27;99772.69;;;12.03;61.08
76124;BME280;65173;48.066;20.976;2023-03-26T06:18:35;99766.66;;;12.42;57.78
76124;BME280;65173;48.066;20.976;2023-03-26T06:22:08;99768.81;;;13.05;57.75
76124;BME280;65173;48.066;20.976;2023-03-26T06:25:30;99770.88;;;12.43;59.23
76124;BME280;65173;48.066;20.976;2023-03-26T06:28:43;99766.59;;;12.55;58.53
76124;BME280;65173;48.066;20.976;2023-03-26T06:32:12;99761.84;;;12.48;59.32
76124;BME280;65173;48.066;20.976;2023-03-26T06:35:43;99770.53;;;13.41;57.87
76124;BME280;65173;48.066;20.976;2023-03-26T06:38:47;99760.09;;;13.67;55.90
76124;BME280;65173;48.066;20.976;2023-03-26T06:41:51;99760.19;;;13.71;56.05
76124;BME280;65173;48.066;20.976;2023-03-26T06:45:29;99757.03;;;14.89;53.52
76124;BME280;65173;48.066;20.976;2023-03-26T06:48:50;99766.44;;;14.99;52.66
76124;BME280;65173;48.066;20.976;2023-03-26T06:52:14;99756.97;;;15.05;50.75
76124;BME280;65173;48.066;20.976;2023-03-26T06:55:24;99769.06;;;15.38;51.95
76124;BME280;65173;48.066;20.976;2023-03-26T06:58:39;99764.91;;;15.40;49.08
76124;BME280;65173;48.066;20.976;2023-03-26T07:02:00;99763.75;;;15.41;51.13
76124;BME280;65173;48.066;20.976;2023-03-26T07:05:21;99764.31;;;15.08;50.14
76124;BME280;65173;48.066;20.976;2023-03-26T07:08:43;99764.47;;;15.57;50.95
76124;BME280;65173;48.066;20.976;2023-03-26T07:12:04;99757.25;;;15.00;49.69
76124;BME280;65173;48.066;20.976;2023-03-26T07:15:17;99760.66;;;14.78;50.34
76124;BME280;65173;48.066;20.976;2023-03-26T07:18:31;99759.97;;;14.81;49.62
76124;BME280;65173;48.066;20.976;2023-03-26T07:21:36;99752.13;;;15.34;49.53
76124;BME280;65173;48.066;20.976;2023-03-26T07:24:49;99754.59;;;15.65;48.91
76124;BME280;65173;48.066;20.976;2023-03-26T07:35:29;99755.22;;;15.81;46.22
76124;BME280;65173;48.066;20.976;2023-03-26T07:42:59;99753.97;;;16.54;44.76
76124;BME280;65173;48.066;20.976;2023-03-26T07:46:27;99753.72;;;16.96;44.77
76124;BME280;65173;48.066;20.976;2023-03-26T07:49:47;99745.56;;;16.59;43.95
76124;BME280;65173;48.066;20.976;2023-03-26T07:53:02;99742.91;;;16.93;45.78
76124;BME280;65173;48.066;20.976;2023-03-26T07:56:35;99737.63;;;17.00;44.28
76124;BME280;65173;48.066;20.976;2023-03-26T08:00:15;99739.56;;;16.70;43.36
76124;BME280;65173;48.066;20.976;2023-03-26T08:07:39;99742.25;;;16.70;44.53
76124;BME280;65173;48.066;20.976;2023-03-26T08:11:23;99740.41;;;17.51;42.77
76124;BME280;65173;48.066;20.976;2023-03-26T08:14:57;99748.66;;;17.28;42.06
76124;BME280;65173;48.066;20.976;2023-03-26T08:21:37;99733.78;;;17.42;41.28
76124;BME280;65173;48.066;20.976;2023-03-26T08:31:43;99737.19;;;18.41;40.75
76124;BME280;65173;48.066;20.976;2023-03-26T08:34:47;99749.50;;;18.35;39.28
76124;BME280;65173;48.066;20.976;2023-03-26T08:37:51;99741.47;;;18.49;40.14
76124;BME280;65173;48.066;20.976;2023-03-26T08:44:52;99743.09;;;17.95;38.98
76124;BME280;65173;48.066;20.976;2023-03-26T09:04:49;99738.25;;;19.41;38.84
76124;BME280;65173;48.066;20.976;2023-03-26T09:25:52;99742.09;;;18.21;37.13
76124;BME280;65173;48.066;20.976;2023-03-26T09:29:34;99738.78;;;17.84;37.21
76124;BME280;65173;48.066;20.976;2023-03-26T09:42:43;99734.72;;;16.22;41.00
76124;BME280;65173;48.066;20.976;2023-03-26T09:59:32;99724.13;;;16.96;41.52
76124;BME280;65173;48.066;20.976;2023-03-26T10:02:41;99725.56;;;18.26;39.42
76124;BME280;65173;48.066;20.976;2023-03-26T10:06:11;99716.91;;;16.71;41.58
76124;BME280;65173;48.066;20.976;2023-03-26T10:12:35;99698.47;;;17.54;39.36
76124;BME280;65173;48.066;20.976;2023-03-26T10:16:01;99705.09;;;17.63;38.44
76124;BME280;65173;48.066;20.976;2023-03-26T10:19:20;99700.53;;;16.83;40.15
76124;BME280;65173;48.066;20.976;2023-03-26T10:22:39;99697.72;;;17.53;38.57
76124;BME280;65173;48.066;20.976;2023-03-26T10:29:19;99697.47;;;15.68;41.31
76124;BME280;65173;48.066;20.976;2023-03-26T10:32:52;99699.63;;;16.12;41.39
76124;BME280;65173;48.066;20.976;2023-03-26T10:36:14;99694.88;;;15.29;40.81
76124;BME280;65173;48.066;20.976;2023-03-26T10:43:13;99692.81;;;15.65;39.94
76124;BME280;65173;48.066;20.976;2023-03-26T10:53:42;99671.97;;;15.36;41.02
76124;BME280;65173;48.066;20.976;2023-03-26T10:56:49;99670.59;;;15.45;41.41
76124;BME280;65173;48.066;20.976;2023-03-26T10:59:57;99674.72;;;15.62;41.59
76124;BME280;65173;48.066;20.976;2023-03-26T11:15:54;99659.88;;;14.57;43.91
76124;BME280;65173;48.066;20.976;2023-03-26T11:19:14;99654.91;;;14.79;44.50
76124;BME280;65173;48.066;20.976;2023-03-26T11:22:45;99653.25;;;15.16;43.66
76124;BME280;65173;48.066;20.976;2023-03-26T11:29:30;99645.22;;;14.74;44.01
76124;BME280;65173;48.066;20.976;2023-03-26T11:32:42;99647.13;;;14.51;44.39
76124;BME280;65173;48.066;20.976;2023-03-26T11:35:49;99644.75;;;14.30;46.37
76124;BME280;65173;48.066;20.976;2023-03-26T11:38:55;99638.69;;;14.14;45.91
76124;BME280;65173;48.066;20.976;2023-03-26T11:42:06;99624.72;;;14.24;46.85
76124;BME280;65173;48.066;20.976;2023-03-26T11:45:20;99627.94;;;14.33;47.04
76124;BME280;65173;48.066;20.976;2023-03-26T11:48:39;99623.16;;;14.62;46.83
76124;BME280;65173;48.066;20.976;2023-03-26T11:51:46;99619.63;;;14.38;46.16
76124;BME280;65173;48.066;20.976;2023-03-26T11:54:50;99620.81;;;14.21;46.60
76124;BME280;65173;48.066;20.976;2023-03-26T11:57:54;99625.50;;;14.44;47.08
76124;BME280;65173;48.066;20.976;2023-03-26T12:01:03;99616.81;;;14.12;46.43
76124;BME280;65173;48.066;20.976;2023-03-26T12:04:12;99624.28;;;14.03;47.28
76124;BME280;65173;48.066;20.976;2023-03-26T12:10:32;99618.38;;;14.51;46.50
76124;BME280;65173;48.066;20.976;2023-03-26T12:13:42;99610.91;;;14.83;46.72
76124;BME280;65173;48.066;20.976;2023-03-26T12:16:57;99607.13;;;15.11;45.86
76124;BME280;65173;48.066;20.976;2023-03-26T12:20:01;99608.38;;;14.71;45.86
76124;BME280;65173;48.066;20.976;2023-03-26T12:23:42;99599.03;;;14.62;44.61
76124;BME280;65173;48.066;20.976;2023-03-26T12:26:46;99597.69;;;14.52;45.23
76124;BME280;65173;48.066;20.976;2023-03-26T12:29:51;99585.50;;;15.00;45.46
76124;BME280;65173;48.066;20.976;2023-03-26T12:33:12;99574.22;;;15.14;44.41
76124;BME280;65173;48.066;20.976;2023-03-26T12:36:29;99568.69;;;15.29;44.26
76124;BME280;65173;48.066;20.976;2023-03-26T12:39:40;99565.22;;;15.82;44.60
76124;BME280;65173;48.066;20.976;2023-03-26T12:43:21;99559.63;;;17.12;40.82
76124;BME280;65173;48.066;20.976;2023-03-26T12:46:44;99551.00;;;16.11;41.33
76124;BME280;65173;48.066;20.976;2023-03-26T12:50:13;99548.09;;;16.67;40.17
76124;BME280;65173;48.066;20.976;2023-03-26T12:53:32;99545.22;;;16.13;40.14
76124;BME280;65173;48.066;20.976;2023-03-26T12:56:47;99551.72;;;16.45;39.43
76124;BME280;65173;48.066;20.976;2023-03-26T13:03:55;99532.81;;;16.38;40.50
76124;BME280;65173;48.066;20.976;2023-03-26T13:14:16;99518.97;;;15.39;40.80
76124;BME280;65173;48.066;20.976;2023-03-26T13:21:00;99491.78;;;17.61;38.54
76124;BME280;65173;48.066;20.976;2023-03-26T13:27:39;99482.78;;;18.41;34.91
76124;BME280;65173;48.066;20.976;2023-03-26T13:37:48;99481.50;;;17.81;35.84
76124;BME280;65173;48.066;20.976;2023-03-26T13:48:13;99466.47;;;17.04;36.87
76124;BME280;65173;48.066;20.976;2023-03-26T13:51:46;99460.56;;;16.81;36.95
76124;BME280;65173;48.066;20.976;2023-03-26T13:55:35;99461.91;;;16.57;39.59
76124;BME280;65173;48.066;20.976;2023-03-26T13:58:59;99457.28;;;16.13;38.11
76124;BME280;65173;48.066;20.976;2023-03-26T14:02:09;99458.84;;;16.58;40.30
76124;BME280;65173;48.066;20.976;2023-03-26T14:05:21;99449.56;;;16.52;37.26
76124;BME280;65173;48.066;20.976;2023-03-26T14:08:33;99453.09;;;16.16;37.59
76124;BME280;65173;48.066;20.976;2023-03-26T14:11:49;99449.84;;;16.00;39.73
76124;BME280;65173;48.066;20.976;2023-03-26T14:14:59;99431.88;;;15.37;38.76
76124;BME280;65173;48.066;20.976;2023-03-26T14:34:49;99431.03;;;14.76;41.30
76124;BME280;65173;48.066;20.976;2023-03-26T14:38:18;99423.34;;;14.75;42.43
76124;BME280;65173;48.066;20.976;2023-03-26T14:41:28;99433.59;;;14.66;44.49
76124;BME280;65173;48.066;20.976;2023-03-26T14:51:56;99431.44;;;14.52;43.85
76124;BME280;65173;48.066;20.976;2023-03-26T14:55:03;99420.97;;;14.70;45.46
76124;BME280;65173;48.066;20.976;2023-03-26T14:58:15;99406.91;;;15.06;44.71
76124;BME280;65173;48.066;20.976;2023-03-26T15:01:27;99415.03;;;15.40;44.60
76124;BME280;65173;48.066;20.976;2023-03-26T15:22:18;99403.41;;;15.32;44.50
76124;BME280;65173;48.066;20.976;2023-03-26T15:39:26;99397.81;;;14.35;44.30
76124;BME280;65173;48.066;20.976;2023-03-26T15:42:45;99401.25;;;14.32;44.58
76124;BME280;65173;48.066;20.976;2023-03-26T15:49:20;99388.25;;;14.11;45.07
76124;BME280;65173;48.066;20.976;2023-03-26T15:52:29;99386.13;;;14.43;45.68
76124;BME280;65173;48.066;20.976;2023-03-26T15:59:26;99376.31;;;14.81;44.55
76124;BME280;65173;48.066;20.976;2023-03-26T16:02:42;99370.13;;;14.77;45.24
76124;BME280;65173;48.066;20.976;2023-03-26T16:16:18;99350.13;;;13.53;49.30
76124;BME280;65173;48.066;20.976;2023-03-26T16:22:40;99344.59;;;13.23;51.15
76124;BME280;65173;48.066;20.976;2023-03-26T16:25:59;99348.72;;;13.01;51.53
76124;BME280;65173;48.066;20.976;2023-03-26T16:32:39;99345.03;;;12.71;52.33
76124;BME280;65173;48.066;20.976;2023-03-26T16:36:03;99344.44;;;12.62;53.80
76124;BME280;65173;48.066;20.976;2023-03-26T16:42:29;99348.19;;;12.26;54.50
76124;BME280;65173;48.066;20.976;2023-03-26T16:46:04;99348.72;;;12.15;55.42
76124;BME280;65173;48.066;20.976;2023-03-26T16:55:46;99341.22;;;11.90;57.62
76124;BME280;65173;48.066;20.976;2023-03-26T17:02:09;99336.16;;;11.57;60.39
76124;BME280;65173;48.066;20.976;2023-03-26T17:05:24;99330.97;;;11.48;61.58
76124;BME280;65173;48.066;20.976;2023-03-26T17:12:17;99326.47;;;11.64;60.34
76124;BME280;65173;48.066;20.976;2023-03-26T17:19:01;99331.09;;;11.67;60.80
76124;BME280;65173;48.066;20.976;2023-03-26T17:22:25;99345.56;;;11.66;61.21
76124;BME280;65173;48.066;20.976;2023-03-26T17:25:36;99337.31;;;11.71;60.71
76124;BME280;65173;48.066;20.976;2023-03-26T17:28:59;99339.09;;;11.67;60.74
76124;BME280;65173;48.066;20.976;2023-03-26T17:32:09;99340.56;;;11.65;60.54
76124;BME280;65173;48.066;20.976;2023-03-26T17:35:14;99341.94;;;11.59;60.92
76124;BME280;65173;48.066;20.976;2023-03-26T17:41:49;99343.25;;;11.37;61.94
76124;BME280;65173;48.066;20.976;2023-03-26T17:48:20;99347.28;;;11.31;61.75
76124;BME280;65173;48.066;20.976;2023-03-26T17:54:59;99337.72;;;11.30;61.40
76124;BME280;65173;48.066;20.976;2023-03-26T17:58:21;99335.31;;;11.25;61.65
76124;BME280;65173;48.066;20.976;2023-03-26T18:04:42;99330.94;;;11.32;61.76
76124;BME280;65173;48.066;20.976;2023-03-26T18:14:45;99324.84;;;11.47;60.43
76124;BME280;65173;48.066;20.976;2023-03-26T18:18:05;99316.78;;;11.44;60.52
76124;BME280;65173;48.066;20.976;2023-03-26T18:21:18;99303.44;;;11.44;60.57
76124;BME280;65173;48.066;20.976;2023-03-26T18:24:27;99303.34;;;11.40;60.63
76124;BME280;65173;48.066;20.976;2023-03-26T18:27:38;99296.94;;;11.29;60.96
76124;BME280;65173;48.066;20.976;2023-03-26T18:30:47;99301.94;;;11.31;60.93
76124;BME280;65173;48.066;20.976;2023-03-26T18:33:55;99306.13;;;11.16;64.47
76124;BME280;65173;48.066;20.976;2023-03-26T18:40:14;99292.78;;;10.88;67.69
76124;BME280;65173;48.066;20.976;2023-03-26T18:43:21;99299.94;;;10.72;68.47
76124;BME280;65173;48.066;20.976;2023-03-26T18:46:37;99301.25;;;10.78;67.69
76124;BME280;65173;48.066;20.976;2023-03-26T18:49:42;99298.91;;;10.76;67.92
76124;BME280;65173;48.066;20.976;2023-03-26T18:52:45;99296.94;;;10.73;67.03
76124;BME280;65173;48.066;20.976;2023-03-26T18:55:49;99295.19;;;10.65;67.70
76124;BME280;65173;48.066;20.976;2023-03-26T18:58:56;99287.19;;;10.65;67.10
76124;BME280;65173;48.066;20.976;2023-03-26T19:02:06;99286.19;;;10.70;67.15
76124;BME280;65173;48.066;20.976;2023-03-26T19:05:14;99283.41;;;10.66;66.45
76124;BME280;65173;48.066;20.976;2023-03-26T19:08:19;99276.63;;;10.69;65.89
76124;BME280;65173;48.066;20.976;2023-03-26T19:11:24;99278.03;;;10.78;65.68
76124;BME280;65173;48.066;20.976;2023-03-26T19:14:29;99281.16;;;10.81;65.68
76124;BME280;65173;48.066;20.976;2023-03-26T19:17:58;99274.50;;;10.74;66.08
76124;BME280;65173;48.066;20.976;2023-03-26T19:21:09;99260.41;;;10.74;68.39
76124;BME280;65173;48.066;20.976;2023-03-26T19:24:12;99260.19;;;10.67;70.12
76124;BME280;65173;48.066;20.976;2023-03-26T19:27:16;99257.44;;;10.63;71.68
76124;BME280;65173;48.066;20.976;2023-03-26T19:30:31;99254.66;;;10.72;68.44
76124;BME280;65173;48.066;20.976;2023-03-26T19:33:38;99251.44;;;10.66;69.34
76124;BME280;65173;48.066;20.976;2023-03-26T19:36:55;99249.53;;;10.67;68.48
76124;BME280;65173;48.066;20.976;2023-03-26T19:40:21;99240.47;;;10.56;69.46
76124;BME280;65173;48.066;20.976;2023-03-26T19:43:27;99225.41;;;10.48;68.47
76124;BME280;65173;48.066;20.976;2023-03-26T19:46:33;99224.72;;;10.51;68.23
76124;BME280;65173;48.066;20.976;2023-03-26T19:49:58;99217.41;;;10.48;70.14
76124;BME280;65173;48.066;20.976;2023-03-26T19:56:20;99214.53;;;10.40;71.82
76124;BME280;65173;48.066;20.976;2023-03-26T19:59:23;99220.97;;;10.39;73.02
76124;BME280;65173;48.066;20.976;2023-03-26T20:02:26;99217.56;;;10.39;69.96
76124;BME280;65173;48.066;20.976;2023-03-26T20:05:32;99211.78;;;10.25;70.85
76124;BME280;65173;48.066;20.976;2023-03-26T20:08:35;99203.69;;;10.21;70.28
76124;BME280;65173;48.066;20.976;2023-03-26T20:11:39;99206.06;;;9.98;72.18
76124;BME280;65173;48.066;20.976;2023-03-26T20:14:42;99192.28;;;10.08;69.22
76124;BME280;65173;48.066;20.976;2023-03-26T20:17:48;99197.72;;;9.88;70.03
76124;BME280;65173;48.066;20.976;2023-03-26T20:20:56;99198.50;;;9.88;69.78
76124;BME280;65173;48.066;20.976;2023-03-26T20:24:00;99201.28;;;9.92;69.40
76124;BME280;65173;48.066;20.976;2023-03-26T20:27:02;99191.53;;;9.84;70.31
76124;BME280;65173;48.066;20.976;2023-03-26T20:30:06;99187.56;;;9.65;71.19
76124;BME280;65173;48.066;20.976;2023-03-26T20:33:22;99187.97;;;9.55;72.28
76124;BME280;65173;48.066;20.976;2023-03-26T20:36:27;99176.56;;;9.43;72.26
76124;BME280;65173;48.066;20.976;2023-03-26T20:39:36;99178.53;;;9.33;72.52
76124;BME280;65173;48.066;20.976;2023-03-26T20:42:42;99166.47;;;9.12;73.40
76124;BME280;65173;48.066;20.976;2023-03-26T20:45:46;99162.13;;;9.19;73.29
76124;BME280;65173;48.066;20.976;2023-03-26T20:48:50;99162.13;;;9.19;72.67
76124;BME280;65173;48.066;20.976;2023-03-26T20:51:53;99158.50;;;9.24;72.07
76124;BME280;65173;48.066;20.976;2023-03-26T20:54:57;99159.03;;;9.17;72.62
76124;BME280;65173;48.066;20.976;2023-03-26T20:58:00;99144.97;;;9.17;72.15
76124;BME280;65173;48.066;20.976;2023-03-26T21:01:03;99133.97;;;8.94;73.76
76124;BME280;65173;48.066;20.976;2023-03-26T21:04:06;99134.97;;;8.89;72.93
76124;BME280;65173;48.066;20.976;2023-03-26T21:07:09;99124.00;;;8.91;72.24
76124;BME280;65173;48.066;20.976;2023-03-26T21:10:21;99113.50;;;8.94;72.37
76124;BME280;65173;48.066;20.976;2023-03-26T21:13:36;99114.16;;;9.03;70.90
76124;BME280;65173;48.066;20.976;2023-03-26T21:16:40;99106.19;;;9.03;71.46
76124;BME280;65173;48.066;20.976;2023-03-26T21:19:44;99101.66;;;9.04;70.67
76124;BME280;65173;48.066;20.976;2023-03-26T21:23:23;99087.25;;;9.05;70.06
76124;BME280;65173;48.066;20.976;2023-03-26T21:26:36;99078.63;;;9.20;69.02
76124;BME280;65173;48.066;20.976;2023-03-26T21:29:44;99076.94;;;9.16;68.70
76124;BME280;65173;48.066;20.976;2023-03-26T21:32:48;99085.94;;;9.23;67.75
76124;BME280;65173;48.066;20.976;2023-03-26T21:35:52;99076.19;;;9.27;67.31
76124;BME280;65173;48.066;20.976;2023-03-26T21:38:55;99069.63;;;9.37;66.67
76124;BME280;65173;48.066;20.976;2023-03-26T21:41:58;99073.41;;;9.36;65.83
76124;BME280;65173;48.066;20.976;2023-03-26T21:45:07;99057.78;;;9.47;65.49
76124;BME280;65173;48.066;20.976;2023-03-26T21:48:11;99058.44;;;9.44;65.17
76124;BME280;65173;48.066;20.976;2023-03-26T21:51:14;99066.75;;;9.42;65.52
76124;BME280;65173;48.066;20.976;2023-03-26T21:54:23;99060.56;;;9.38;63.90